Terminal Aerodrome Forecast
Issued by NWS

Home | Current Version | Previous Version | Text Only | Print | Product List | Glossary On
Versions: 1 2 3 4 5 6 7 8 9 10 11 12 13 14 15 16 17 18 19 20 21 22 23 24 25 26
000
FTUS41 KOKX 031136
TAFSWF
TAF
KSWF 031136Z 0312/0418 VRB03KT P6SM SKC
      TEMPO 0312/0314 5SM HZ
     FM031500 03006KT P6SM FEW050 BKN200
     FM040100 VRB03KT P6SM BKN250
      TEMPO 0407/0411 4SM BR BKN050
     FM041400 08007KT P6SM BKN030
      AMD NOT SKED=

USA.gov is the U.S. government's official web portal to all federal, state and local government web resources and services.